Terminal Aerodrome Forecast
Issued by NWS

Home | Current Version | Previous Version | Text Only | Print | Product List | Glossary Off
Versions: 1 2 3 4 5 6 7 8 9 10 11 12 13 14 15 16 17 18

000
FTUS41 KCLE 261700
TAFFDY
TAF
KFDY 261740Z 2618/2718 02012G20KT P6SM SCT050
     FM270100 02006KT P6SM SCT050 BKN100
     FM270600 31005KT P6SM VCSH OVC050
     FM271400 33012KT P6SM OVC025=

USA.gov is the U.S. government's official web portal to all federal, state and local government web resources and services.